Minerva Concert — SVWC — position and weather

sailwx.info

Track history (hours):
 
Tides and Currents Weather Stations Pressure Air Temp Water Temp Dewpoint Dewpoint Depression Visibility Wind Speed Wind Dir Waves Ship Positions

Minerva Concert

Last reported at 2016-Dec-07 10:34 UTC. Time now 2016-Dec-07 10:38 UTC.
Position N 57°33' E 011°13'.

Length 241 m; draft 8 m.

Type: Ship. MMSI: 240110000.

Date/timePositionNaut miles runAvg speedWind from/ knotsBaromVisibWave heightAir tempDewpointWater temp
2016-Dec-07 10:34N 57°33' E 011°13'1212.3
2016-Dec-07 09:33N 57°42' E 010°56'1212.3
2016-Dec-07 08:33N 57°48' E 010°36'1312.9
2016-Dec-07 07:32N 57°48' E 010°11'1313.0
2016-Dec-07 06:34N 57°47' E 009°47'1313.3
2016-Dec-07 05:34N 57°43' E 009°23'1313.3
2016-Dec-07 04:33N 57°40' E 008°59'1413.3
2016-Dec-07 03:29N 57°36' E 008°33'5413.0
2016-Dec-06 23:18N 57°35' E 006°52'2413.0
2016-Dec-06 21:28N 57°35' E 006°08'32212.0
2016-Dec-05 18:32N 59°30' W 003°28'1212.0
2016-Dec-05 17:33N 59°28' W 003°51'1611.7
2016-Dec-05 16:11N 59°25' W 004°22'269 9.7
2016-Dec-04 12:33N 54°58' W 005°33'1111.4
2016-Dec-04 11:33N 54°50' W 005°20'1111.2
2016-Dec-04 10:33N 54°40' W 005°09'1111.2
2016-Dec-04 09:33N 54°30' W 005°02'1312.5
2016-Dec-04 08:33N 54°17' W 005°01'1312.9
2016-Dec-04 07:33N 54°04' W 005°01'3812.8
2016-Dec-04 04:33N 53°42' W 004°08'1414.0
2016-Dec-04 03:33N 53°35' W 003°47'1313.3
2016-Dec-04 02:33N 53°33' W 003°25'10 9.7
2016-Dec-04 01:33N 53°32' W 003°09'9 8.8
2016-Dec-04 00:33N 53°25' W 003°01'2 2.1
2016-Dec-03 23:33N 53°23' W 002°60'0 0.0
2016-Dec-03 22:32N 53°23' W 002°60'0 0.0
2016-Dec-03 21:32N 53°23' W 002°60'0 0.0
2016-Dec-03 20:32N 53°23' W 002°60'0 0.0
2016-Dec-03 19:32N 53°23' W 002°60'0 0.0
2016-Dec-03 18:32N 53°23' W 002°60'0 0.0
2016-Dec-03 17:32N 53°23' W 002°60'0 0.0
2016-Dec-03 16:26N 53°23' W 002°60'0 0.0
2016-Dec-03 15:32N 53°23' W 002°60'0 0.0
2016-Dec-03 14:32N 53°23' W 002°60'0 0.0
2016-Dec-03 13:32N 53°23' W 002°60'0 0.0
2016-Dec-03 12:32N 53°23' W 002°60'0 0.0
2016-Dec-03 11:29N 53°23' W 002°60'0 0.0
2016-Dec-03 10:23N 53°23' W 002°60'0 0.0
2016-Dec-03 09:32N 53°23' W 002°60'0 0.0
2016-Dec-03 08:32N 53°23' W 002°60'0 0.0
2016-Dec-03 07:29N 53°23' W 002°60'0 0.0
2016-Dec-03 06:32N 53°23' W 002°60'0 0.0
2016-Dec-03 05:32N 53°23' W 002°60'0 0.0
2016-Dec-03 04:29N 53°23' W 002°60'0 0.0
2016-Dec-03 03:32N 53°23' W 002°60'0 0.0
2016-Dec-03 02:26N 53°23' W 002°60'0 0.0
2016-Dec-03 01:29N 53°23' W 002°60'0 0.0
2016-Dec-03 00:32N 53°23' W 002°60'0 0.0
2016-Dec-02 23:32N 53°23' W 002°60'0 0.0
2016-Dec-02 22:32N 53°23' W 002°60'0 0.0
2016-Dec-02 21:32N 53°23' W 002°60'0 0.0
2016-Dec-02 20:32N 53°23' W 002°60'0 0.0
2016-Dec-02 19:32N 53°23' W 002°60'0 0.0
2016-Dec-02 18:29N 53°23' W 002°60'0 0.0
2016-Dec-02 17:32N 53°23' W 002°60'0 0.0
2016-Dec-02 16:32N 53°23' W 002°60'0 0.0
2016-Dec-02 15:29N 53°23' W 002°60'0 0.0
2016-Dec-02 14:32N 53°23' W 002°60'0 0.0
2016-Dec-02 13:32N 53°23' W 002°60'0 0.1
2016-Dec-02 12:33N 53°23' W 002°60'4 4.2
2016-Dec-02 11:33N 53°27' W 003°02'9 9.0
2016-Dec-02 10:33N 53°31' W 003°15'6 6.3
2016-Dec-02 09:33N 53°32' W 003°25'1 0.6
2016-Dec-02 08:33N 53°32' W 003°26'6 6.0
2016-Dec-02 07:33N 53°31' W 003°36'7 7.4
2016-Dec-02 06:33N 53°31' W 003°48'8 8.0
2016-Dec-02 05:33N 53°30' W 004°02'10 8.5
2016-Dec-02 04:20N 53°30' W 004°19'7510.8
2016-Dec-01 21:19N 52°26' W 005°25'4014.0
2016-Dec-01 18:29N 51°49' W 005°48'1412.6
2016-Dec-01 17:25N 51°35' W 005°53'1212.4
2016-Dec-01 16:25N 51°23' W 005°58'1111.5
2016-Dec-01 15:29N 51°13' W 006°03'  
Track history (hours):
 
Tides and Currents Weather Stations Pressure Air Temp Water Temp Dewpoint Dewpoint Depression Visibility Wind Speed Wind Dir Waves Ship Positions

Minerva Concert

Last reported at 2016-Dec-07 10:34 UTC. Time now 2016-Dec-07 10:38 UTC.
Position N 57°33' E 011°13'.

Length 241 m; draft 8 m.

Type: Ship. MMSI: 240110000.

Date/timePositionNaut miles runAvg speedWind from/ knotsBaromVisibWave heightAir tempDewpointWater temp
2016-Dec-07 10:34N 57°33' E 011°13'1212.3
2016-Dec-07 09:33N 57°42' E 010°56'1212.3
2016-Dec-07 08:33N 57°48' E 010°36'1312.9
2016-Dec-07 07:32N 57°48' E 010°11'1313.0
2016-Dec-07 06:34N 57°47' E 009°47'1313.3
2016-Dec-07 05:34N 57°43' E 009°23'1313.3
2016-Dec-07 04:33N 57°40' E 008°59'1413.3
2016-Dec-07 03:29N 57°36' E 008°33'5413.0
2016-Dec-06 23:18N 57°35' E 006°52'2413.0
2016-Dec-06 21:28N 57°35' E 006°08'32212.0
2016-Dec-05 18:32N 59°30' W 003°28'1212.0
2016-Dec-05 17:33N 59°28' W 003°51'1611.7
2016-Dec-05 16:11N 59°25' W 004°22'269 9.7
2016-Dec-04 12:33N 54°58' W 005°33'1111.4
2016-Dec-04 11:33N 54°50' W 005°20'1111.2
2016-Dec-04 10:33N 54°40' W 005°09'1111.2
2016-Dec-04 09:33N 54°30' W 005°02'1312.5
2016-Dec-04 08:33N 54°17' W 005°01'1312.9
2016-Dec-04 07:33N 54°04' W 005°01'3812.8
2016-Dec-04 04:33N 53°42' W 004°08'1414.0
2016-Dec-04 03:33N 53°35' W 003°47'1313.3
2016-Dec-04 02:33N 53°33' W 003°25'10 9.7
2016-Dec-04 01:33N 53°32' W 003°09'9 8.8
2016-Dec-04 00:33N 53°25' W 003°01'2 2.1
2016-Dec-03 23:33N 53°23' W 002°60'0 0.0
2016-Dec-03 22:32N 53°23' W 002°60'0 0.0
2016-Dec-03 21:32N 53°23' W 002°60'0 0.0
2016-Dec-03 20:32N 53°23' W 002°60'0 0.0
2016-Dec-03 19:32N 53°23' W 002°60'0 0.0
2016-Dec-03 18:32N 53°23' W 002°60'0 0.0
2016-Dec-03 17:32N 53°23' W 002°60'0 0.0
2016-Dec-03 16:26N 53°23' W 002°60'0 0.0
2016-Dec-03 15:32N 53°23' W 002°60'0 0.0
2016-Dec-03 14:32N 53°23' W 002°60'0 0.0
2016-Dec-03 13:32N 53°23' W 002°60'0 0.0
2016-Dec-03 12:32N 53°23' W 002°60'0 0.0
2016-Dec-03 11:29N 53°23' W 002°60'0 0.0
2016-Dec-03 10:23N 53°23' W 002°60'0 0.0
2016-Dec-03 09:32N 53°23' W 002°60'0 0.0
2016-Dec-03 08:32N 53°23' W 002°60'0 0.0
2016-Dec-03 07:29N 53°23' W 002°60'0 0.0
2016-Dec-03 06:32N 53°23' W 002°60'0 0.0
2016-Dec-03 05:32N 53°23' W 002°60'0 0.0
2016-Dec-03 04:29N 53°23' W 002°60'0 0.0
2016-Dec-03 03:32N 53°23' W 002°60'0 0.0
2016-Dec-03 02:26N 53°23' W 002°60'0 0.0
2016-Dec-03 01:29N 53°23' W 002°60'0 0.0
2016-Dec-03 00:32N 53°23' W 002°60'0 0.0
2016-Dec-02 23:32N 53°23' W 002°60'0 0.0
2016-Dec-02 22:32N 53°23' W 002°60'0 0.0
2016-Dec-02 21:32N 53°23' W 002°60'0 0.0
2016-Dec-02 20:32N 53°23' W 002°60'0 0.0
2016-Dec-02 19:32N 53°23' W 002°60'0 0.0
2016-Dec-02 18:29N 53°23' W 002°60'0 0.0
2016-Dec-02 17:32N 53°23' W 002°60'0 0.0
2016-Dec-02 16:32N 53°23' W 002°60'0 0.0
2016-Dec-02 15:29N 53°23' W 002°60'0 0.0
2016-Dec-02 14:32N 53°23' W 002°60'0 0.0
2016-Dec-02 13:32N 53°23' W 002°60'0 0.1
2016-Dec-02 12:33N 53°23' W 002°60'4 4.2
2016-Dec-02 11:33N 53°27' W 003°02'9 9.0
2016-Dec-02 10:33N 53°31' W 003°15'6 6.3
2016-Dec-02 09:33N 53°32' W 003°25'1 0.6
2016-Dec-02 08:33N 53°32' W 003°26'6 6.0
2016-Dec-02 07:33N 53°31' W 003°36'7 7.4
2016-Dec-02 06:33N 53°31' W 003°48'8 8.0
2016-Dec-02 05:33N 53°30' W 004°02'10 8.5
2016-Dec-02 04:20N 53°30' W 004°19'7510.8
2016-Dec-01 21:19N 52°26' W 005°25'4014.0
2016-Dec-01 18:29N 51°49' W 005°48'1412.6
2016-Dec-01 17:25N 51°35' W 005°53'1212.4
2016-Dec-01 16:25N 51°23' W 005°58'1111.5
2016-Dec-01 15:29N 51°13' W 006°03'  

Dump ship's entire track history